Time,TemperatureF,DewpointF,PressureIn,WindDirection,WindDirectionDegrees,WindSpeedMPH,WindSpeedGustMPH,Humidity,HourlyPrecipIn,Conditions,Clouds,dailyrainin,SoftwareType,DateUTC
2013-04-14 00:01:00,22.0,19.0,-100.00,WNW,300,0.0,0.0,89,-99.99,,,-99.99,,2013-04-14 05:01:00,
2013-04-14 00:23:00,22.0,19.0,-100.00,WNW,300,0.0,0.0,89,-99.99,,,-99.99,,2013-04-14 05:23:00,
2013-04-14 00:32:00,22.0,19.0,-100.00,WNW,300,0.0,0.0,89,-99.99,,,-99.99,,2013-04-14 05:32:00,
2013-04-14 00:42:00,22.0,19.0,-100.00,WNW,300,0.0,0.0,89,-99.99,,,-99.99,,2013-04-14 05:42:00,
2013-04-14 00:52:00,22.0,19.0,-100.00,WNW,300,0.0,0.0,89,-99.99,,,-99.99,,2013-04-14 05:52:00,
2013-04-14 01:01:00,23.0,21.0,-100.00,WNW,295,0.0,0.0,92,-99.99,,,-99.99,,2013-04-14 06:01:00,
2013-04-14 01:22:00,23.0,21.0,-100.00,WNW,295,0.0,0.0,92,-99.99,,,-99.99,,2013-04-14 06:22:00,
2013-04-14 01:32:00,23.0,21.0,-100.00,WNW,295,0.0,0.0,92,-99.99,,,-99.99,,2013-04-14 06:32:00,
2013-04-14 01:42:00,23.0,21.0,-100.00,WNW,295,0.0,0.0,92,-99.99,,,-99.99,,2013-04-14 06:42:00,
2013-04-14 01:52:00,23.0,21.0,-100.00,WNW,295,0.0,0.0,92,-99.99,,,-99.99,,2013-04-14 06:52:00,
2013-04-14 02:01:00,23.0,22.0,-100.00,NNW,335,0.0,0.0,94,-99.99,,,-99.99,,2013-04-14 07:01:00,
2013-04-14 02:23:00,23.0,22.0,-100.00,NNW,335,0.0,0.0,94,-99.99,,,-99.99,,2013-04-14 07:23:00,
2013-04-14 02:33:00,23.0,22.0,-100.00,NNW,335,0.0,0.0,94,-99.99,,,-99.99,,2013-04-14 07:33:00,
2013-04-14 02:42:00,23.0,22.0,-100.00,NNW,335,0.0,0.0,94,-99.99,,,-99.99,,2013-04-14 07:42:00,
2013-04-14 02:52:00,23.0,22.0,-100.00,NNW,335,0.0,0.0,94,-99.99,,,-99.99,,2013-04-14 07:52:00,
2013-04-14 03:01:00,22.0,21.0,-100.00,NNE,25,0.0,0.0,95,-99.99,,,-99.99,,2013-04-14 08:01:00,
2013-04-14 03:23:00,22.0,21.0,-100.00,NNE,25,0.0,0.0,95,-99.99,,,-99.99,,2013-04-14 08:23:00,
2013-04-14 03:33:00,22.0,21.0,-100.00,NNE,25,0.0,0.0,95,-99.99,,,-99.99,,2013-04-14 08:33:00,
2013-04-14 03:43:00,22.0,21.0,-100.00,NNE,25,0.0,0.0,95,-99.99,,,-99.99,,2013-04-14 08:43:00,
2013-04-14 03:52:00,22.0,21.0,-100.00,NNE,25,0.0,0.0,95,-99.99,,,-99.99,,2013-04-14 08:52:00,
2013-04-14 04:01:00,20.0,19.0,-100.00,NE,35,0.0,0.0,95,-99.99,,,-99.99,,2013-04-14 09:01:00,
2013-04-14 04:22:00,20.0,19.0,-100.00,NE,35,0.0,0.0,95,-99.99,,,-99.99,,2013-04-14 09:22:00,
2013-04-14 04:33:00,20.0,19.0,-100.00,NE,35,0.0,0.0,95,-99.99,,,-99.99,,2013-04-14 09:33:00,
2013-04-14 04:43:00,20.0,19.0,-100.00,NE,35,0.0,0.0,95,-99.99,,,-99.99,,2013-04-14 09:43:00,
2013-04-14 04:53:00,20.0,19.0,-100.00,NE,35,0.0,0.0,95,-99.99,,,-99.99,,2013-04-14 09:53:00,
2013-04-14 05:01:00,20.0,19.0,-100.00,NE,40,0.0,0.0,95,-99.99,,,-99.99,,2013-04-14 10:01:00,
2013-04-14 05:23:00,20.0,19.0,-100.00,NE,40,0.0,0.0,95,-99.99,,,-99.99,,2013-04-14 10:23:00,
2013-04-14 05:33:00,20.0,19.0,-100.00,NE,40,0.0,0.0,95,-99.99,,,-99.99,,2013-04-14 10:33:00,
2013-04-14 05:43:00,20.0,19.0,-100.00,NE,40,0.0,0.0,95,-99.99,,,-99.99,,2013-04-14 10:43:00,
2013-04-14 05:52:00,20.0,19.0,-100.00,NE,40,0.0,0.0,95,-99.99,,,-99.99,,2013-04-14 10:52:00,
2013-04-14 06:01:00,23.0,22.0,-100.00,East,85,0.0,0.0,95,-99.99,,,-99.99,,2013-04-14 11:01:00,
2013-04-14 06:23:00,23.0,22.0,-100.00,East,85,0.0,0.0,95,-99.99,,,-99.99,,2013-04-14 11:23:00,
2013-04-14 06:33:00,23.0,22.0,-100.00,East,85,0.0,0.0,95,-99.99,,,-99.99,,2013-04-14 11:33:00,
2013-04-14 06:42:00,23.0,22.0,-100.00,East,85,0.0,0.0,95,-99.99,,,-99.99,,2013-04-14 11:42:00,
2013-04-14 06:53:00,23.0,22.0,-100.00,East,85,0.0,0.0,95,-99.99,,,-99.99,,2013-04-14 11:53:00,
2013-04-14 07:01:00,25.0,23.0,-100.00,ESE,110,0.0,0.0,93,-99.99,,,-99.99,,2013-04-14 12:01:00,
2013-04-14 07:22:00,25.0,23.0,-100.00,ESE,110,0.0,0.0,93,-99.99,,,-99.99,,2013-04-14 12:22:00,
2013-04-14 07:32:00,25.0,23.0,-100.00,ESE,110,0.0,0.0,93,-99.99,,,-99.99,,2013-04-14 12:32:00,
2013-04-14 07:42:00,25.0,23.0,-100.00,ESE,110,0.0,0.0,93,-99.99,,,-99.99,,2013-04-14 12:42:00,
2013-04-14 07:52:00,25.0,23.0,-100.00,ESE,110,0.0,0.0,93,-99.99,,,-99.99,,2013-04-14 12:52:00,
2013-04-14 08:01:00,28.0,22.0,-100.00,East,90,0.0,0.0,80,-99.99,,,-99.99,,2013-04-14 13:01:00,
2013-04-14 08:23:00,28.0,22.0,-100.00,East,90,0.0,0.0,80,-99.99,,,-99.99,,2013-04-14 13:23:00,
2013-04-14 08:33:00,28.0,22.0,-100.00,East,90,0.0,0.0,80,-99.99,,,-99.99,,2013-04-14 13:33:00,
2013-04-14 08:43:00,28.0,22.0,-100.00,East,90,0.0,0.0,80,-99.99,,,-99.99,,2013-04-14 13:43:00,
2013-04-14 08:52:00,28.0,22.0,-100.00,East,90,0.0,0.0,80,-99.99,,,-99.99,,2013-04-14 13:52:00,
2013-04-14 09:01:00,29.0,21.0,-100.00,East,95,0.0,0.0,71,-99.99,,,-99.99,,2013-04-14 14:01:00,
2013-04-14 09:22:00,29.0,21.0,-100.00,East,95,0.0,0.0,71,-99.99,,,-99.99,,2013-04-14 14:22:00,
2013-04-14 09:32:00,29.0,21.0,-100.00,East,95,0.0,0.0,71,-99.99,,,-99.99,,2013-04-14 14:32:00,
2013-04-14 09:42:00,29.0,21.0,-100.00,East,95,0.0,0.0,71,-99.99,,,-99.99,,2013-04-14 14:42:00,
2013-04-14 09:53:00,29.0,21.0,-100.00,East,95,0.0,0.0,71,-99.99,,,-99.99,,2013-04-14 14:53:00,
2013-04-14 10:01:00,30.0,20.0,-100.00,ESE,105,0.0,0.0,66,-99.99,,,-99.99,,2013-04-14 15:01:00,
2013-04-14 10:23:00,30.0,20.0,-100.00,ESE,105,0.0,0.0,66,-99.99,,,-99.99,,2013-04-14 15:23:00,
2013-04-14 10:34:00,30.0,20.0,-100.00,ESE,105,0.0,0.0,66,-99.99,,,-99.99,,2013-04-14 15:34:00,
2013-04-14 10:43:00,30.0,20.0,-100.00,ESE,105,0.0,0.0,66,-99.99,,,-99.99,,2013-04-14 15:43:00,
2013-04-14 10:53:00,30.0,20.0,-100.00,ESE,105,0.0,0.0,66,-99.99,,,-99.99,,2013-04-14 15:53:00,
2013-04-14 11:01:00,30.0,22.0,-100.00,ESE,110,0.0,0.0,70,-99.99,,,-99.99,,2013-04-14 16:01:00,
2013-04-14 11:23:00,30.0,22.0,-100.00,ESE,110,0.0,0.0,70,-99.99,,,-99.99,,2013-04-14 16:23:00,
2013-04-14 11:33:00,30.0,22.0,-100.00,ESE,110,0.0,0.0,70,-99.99,,,-99.99,,2013-04-14 16:33:00,
2013-04-14 11:43:00,30.0,22.0,-100.00,ESE,110,0.0,0.0,70,-99.99,,,-99.99,,2013-04-14 16:43:00,
2013-04-14 11:53:00,30.0,22.0,-100.00,ESE,110,0.0,0.0,70,-99.99,,,-99.99,,2013-04-14 16:53:00,
2013-04-14 12:01:00,28.0,27.0,-100.00,ESE,115,0.0,0.0,96,-99.99,,,-99.99,,2013-04-14 17:01:00,
2013-04-14 12:23:00,28.0,27.0,-100.00,ESE,115,0.0,0.0,96,-99.99,,,-99.99,,2013-04-14 17:23:00,
2013-04-14 12:33:00,28.0,27.0,-100.00,ESE,115,0.0,0.0,96,-99.99,,,-99.99,,2013-04-14 17:33:00,
2013-04-14 12:42:00,28.0,27.0,-100.00,ESE,115,0.0,0.0,96,-99.99,,,-99.99,,2013-04-14 17:42:00,
2013-04-14 12:53:00,28.0,27.0,-100.00,ESE,115,0.0,0.0,96,-99.99,,,-99.99,,2013-04-14 17:53:00,
2013-04-14 13:01:00,28.0,28.0,-100.00,ESE,105,0.0,0.0,98,-99.99,,,-99.99,,2013-04-14 18:01:00,
2013-04-14 13:22:00,28.0,28.0,-100.00,ESE,105,0.0,0.0,98,-99.99,,,-99.99,,2013-04-14 18:22:00,
2013-04-14 13:33:00,28.0,28.0,-100.00,ESE,105,0.0,0.0,98,-99.99,,,-99.99,,2013-04-14 18:33:00,
2013-04-14 13:43:00,28.0,28.0,-100.00,ESE,105,0.0,0.0,98,-99.99,,,-99.99,,2013-04-14 18:43:00,
2013-04-14 13:53:00,28.0,28.0,-100.00,ESE,105,0.0,0.0,98,-99.99,,,-99.99,,2013-04-14 18:53:00,
2013-04-14 14:01:00,29.0,28.0,-100.00,East,100,0.0,0.0,98,-99.99,,,-99.99,,2013-04-14 19:01:00,
2013-04-14 14:22:00,29.0,28.0,-100.00,East,100,0.0,0.0,98,-99.99,,,-99.99,,2013-04-14 19:22:00,
2013-04-14 14:32:00,29.0,28.0,-100.00,East,100,0.0,0.0,98,-99.99,,,-99.99,,2013-04-14 19:32:00,
2013-04-14 14:43:00,29.0,28.0,-100.00,East,100,0.0,0.0,98,-99.99,,,-99.99,,2013-04-14 19:43:00,
2013-04-14 14:53:00,29.0,28.0,-100.00,East,100,0.0,0.0,98,-99.99,,,-99.99,,2013-04-14 19:53:00,
2013-04-14 15:01:00,30.0,29.0,-100.00,East,95,0.0,0.0,97,-99.99,,,-99.99,,2013-04-14 20:01:00,
2013-04-14 15:22:00,30.0,29.0,-100.00,East,95,0.0,0.0,97,-99.99,,,-99.99,,2013-04-14 20:22:00,
2013-04-14 15:33:00,30.0,29.0,-100.00,East,95,0.0,0.0,97,-99.99,,,-99.99,,2013-04-14 20:33:00,
2013-04-14 15:43:00,30.0,29.0,-100.00,East,95,0.0,0.0,97,-99.99,,,-99.99,,2013-04-14 20:43:00,
2013-04-14 15:52:00,30.0,29.0,-100.00,East,95,0.0,0.0,97,-99.99,,,-99.99,,2013-04-14 20:52:00,
2013-04-14 16:01:00,31.0,30.0,-100.00,ESE,105,0.0,0.0,96,-99.99,,,-99.99,,2013-04-14 21:01:00,
2013-04-14 16:23:00,31.0,30.0,-100.00,ESE,105,0.0,0.0,96,-99.99,,,-99.99,,2013-04-14 21:23:00,
2013-04-14 16:33:00,31.0,30.0,-100.00,ESE,105,0.0,0.0,96,-99.99,,,-99.99,,2013-04-14 21:33:00,
2013-04-14 16:43:00,31.0,30.0,-100.00,ESE,105,0.0,0.0,96,-99.99,,,-99.99,,2013-04-14 21:43:00,
2013-04-14 16:53:00,31.0,30.0,-100.00,ESE,105,0.0,0.0,96,-99.99,,,-99.99,,2013-04-14 21:53:00,
2013-04-14 17:01:00,31.0,30.0,-100.00,East,100,0.0,0.0,97,-99.99,,,-99.99,,2013-04-14 22:01:00,
2013-04-14 17:23:00,31.0,30.0,-100.00,East,100,0.0,0.0,97,-99.99,,,-99.99,,2013-04-14 22:23:00,
2013-04-14 17:33:00,31.0,30.0,-100.00,East,100,0.0,0.0,97,-99.99,,,-99.99,,2013-04-14 22:33:00,
2013-04-14 17:44:00,31.0,30.0,-100.00,East,100,0.0,0.0,97,-99.99,,,-99.99,,2013-04-14 22:44:00,
2013-04-14 17:53:00,31.0,30.0,-100.00,East,100,0.0,0.0,97,-99.99,,,-99.99,,2013-04-14 22:53:00,
2013-04-14 18:01:00,31.0,31.0,-100.00,East,100,0.0,0.0,98,-99.99,,,-99.99,,2013-04-14 23:01:00,
2013-04-14 18:23:00,31.0,31.0,-100.00,East,100,0.0,0.0,98,-99.99,,,-99.99,,2013-04-14 23:23:00,
2013-04-14 18:33:00,31.0,31.0,-100.00,East,100,0.0,0.0,98,-99.99,,,-99.99,,2013-04-14 23:33:00,
2013-04-14 18:43:00,31.0,31.0,-100.00,East,100,0.0,0.0,98,-99.99,,,-99.99,,2013-04-14 23:43:00,
2013-04-14 18:53:00,31.0,31.0,-100.00,East,100,0.0,0.0,98,-99.99,,,-99.99,,2013-04-14 23:53:00,
2013-04-14 19:01:00,32.0,31.0,-100.00,East,100,0.0,0.0,98,-99.99,,,-99.99,,2013-04-15 00:01:00,
2013-04-14 19:23:00,32.0,31.0,-100.00,East,100,0.0,0.0,98,-99.99,,,-99.99,,2013-04-15 00:23:00,
2013-04-14 19:33:00,32.0,31.0,-100.00,East,100,0.0,0.0,98,-99.99,,,-99.99,,2013-04-15 00:33:00,
2013-04-14 19:42:00,32.0,31.0,-100.00,East,100,0.0,0.0,98,-99.99,,,-99.99,,2013-04-15 00:42:00,
2013-04-14 19:52:00,32.0,31.0,-100.00,East,100,0.0,0.0,98,-99.99,,,-99.99,,2013-04-15 00:52:00,
2013-04-14 20:01:00,32.0,32.0,-100.00,East,100,0.0,0.0,98,-99.99,,,-99.99,,2013-04-15 01:01:00,
2013-04-14 20:23:00,32.0,32.0,-100.00,East,100,0.0,0.0,98,-99.99,,,-99.99,,2013-04-15 01:23:00,
2013-04-14 20:33:00,32.0,32.0,-100.00,East,100,0.0,0.0,98,-99.99,,,-99.99,,2013-04-15 01:33:00,
2013-04-14 20:42:00,32.0,32.0,-100.00,East,100,0.0,0.0,98,-99.99,,,-99.99,,2013-04-15 01:42:00,
2013-04-14 20:52:00,32.0,32.0,-100.00,East,100,0.0,0.0,98,-99.99,,,-99.99,,2013-04-15 01:52:00,
2013-04-14 21:01:00,33.0,32.0,-100.00,ESE,105,0.0,0.0,98,-99.99,,,-99.99,,2013-04-15 02:01:00,
2013-04-14 21:22:00,33.0,32.0,-100.00,ESE,105,0.0,0.0,98,-99.99,,,-99.99,,2013-04-15 02:22:00,
2013-04-14 21:32:00,33.0,32.0,-100.00,ESE,105,0.0,0.0,98,-99.99,,,-99.99,,2013-04-15 02:32:00,
2013-04-14 21:42:00,33.0,32.0,-100.00,ESE,105,0.0,0.0,98,-99.99,,,-99.99,,2013-04-15 02:42:00,
2013-04-14 21:53:00,33.0,32.0,-100.00,ESE,105,0.0,0.0,98,-99.99,,,-99.99,,2013-04-15 02:53:00,
2013-04-14 22:01:00,33.0,32.0,-100.00,ESE,115,0.0,0.0,98,-99.99,,,-99.99,,2013-04-15 03:01:00,
2013-04-14 22:22:00,33.0,32.0,-100.00,ESE,115,0.0,0.0,98,-99.99,,,-99.99,,2013-04-15 03:22:00,
2013-04-14 22:33:00,33.0,32.0,-100.00,ESE,115,0.0,0.0,98,-99.99,,,-99.99,,2013-04-15 03:33:00,
2013-04-14 22:43:00,33.0,32.0,-100.00,ESE,115,0.0,0.0,98,-99.99,,,-99.99,,2013-04-15 03:43:00,
2013-04-14 22:55:00,33.0,32.0,-100.00,ESE,115,0.0,0.0,98,-99.99,,,-99.99,,2013-04-15 03:55:00,
2013-04-14 23:01:00,33.0,32.0,-100.00,ESE,110,0.0,0.0,98,-99.99,,,-99.99,,2013-04-15 04:01:00,
2013-04-14 23:23:00,33.0,32.0,-100.00,ESE,110,0.0,0.0,98,-99.99,,,-99.99,,2013-04-15 04:23:00,
2013-04-14 23:33:00,33.0,32.0,-100.00,ESE,110,0.0,0.0,98,-99.99,,,-99.99,,2013-04-15 04:33:00,
2013-04-14 23:43:00,33.0,32.0,-100.00,ESE,110,0.0,0.0,98,-99.99,,,-99.99,,2013-04-15 04:43:00,
2013-04-14 23:53:00,33.0,32.0,-100.00,ESE,110,0.0,0.0,98,-99.99,,,-99.99,,2013-04-15 04:53:00,